Time;durP1;ratioP1;P1;durP2;ratioP2;P2;SDS_P1;SDS_P2;PMS_P1;PMS_P2;Temp;Humidity;BMP_temperature;BMP_pressure;BME280_temperature;BME280_humidity;BME280_pressure;Samples;Min_cycle;Max_cycle;Signal;HPM_P1;HPM_P2
2022/12/08 00:01:32;;;;;;;6.15;2.30;;;;;;;-0.89;100.00;100521.44;5018904;28;20184;-45
2022/12/08 00:04:00;;;;;;;3.45;1.98;;;;;;;-0.81;100.00;100526.72;5022337;28;20193;-46
2022/12/08 00:09:34;;;;;;;3.20;1.98;;;;;;;-0.89;100.00;100517.94;5020094;28;20195;-46
2022/12/08 00:12:06;;;;;;;4.97;1.80;;;;;;;-0.93;100.00;100518.81;5017331;28;20196;-47
2022/12/08 00:14:34;;;;;;;1.52;1.20;;;;;;;-0.92;100.00;100520.56;5016762;28;20189;-47
2022/12/08 00:17:02;;;;;;;1.30;1.17;;;;;;;-0.90;100.00;100516.19;5018026;28;20180;-46
2022/12/08 00:19:27;;;;;;;3.72;1.30;;;;;;;-0.88;100.00;100511.81;5015236;28;20203;-48
2022/12/08 00:21:53;;;;;;;4.03;0.90;;;;;;;-0.95;100.00;100508.28;5019070;28;20192;-46
2022/12/08 00:24:20;;;;;;;1.85;1.00;;;;;;;-0.94;100.00;100507.41;5018015;28;20636;-48
2022/12/08 00:26:46;;;;;;;2.20;0.80;;;;;;;-0.97;100.00;100512.66;5015552;28;20180;-47
2022/12/08 00:29:12;;;;;;;2.05;0.70;;;;;;;-0.96;100.00;100509.16;5019382;28;20762;-46
2022/12/08 00:31:38;;;;;;;2.33;0.88;;;;;;;-0.95;100.00;100497.75;5017770;28;20234;-46
2022/12/08 00:34:04;;;;;;;6.22;0.63;;;;;;;-0.97;100.00;100507.38;5018177;28;20205;-47
2022/12/08 00:36:30;;;;;;;3.83;0.82;;;;;;;-0.97;100.00;100502.13;5019337;28;20549;-47
2022/12/08 00:38:56;;;;;;;4.07;0.88;;;;;;;-0.97;100.00;100501.25;5019015;28;20204;-46
2022/12/08 00:44:09;;;;;;;1.02;0.70;;;;;;;-0.97;100.00;100483.72;5019486;28;20195;-43
2022/12/08 00:46:35;;;;;;;2.83;0.80;;;;;;;-0.97;100.00;100475.84;5018719;28;20177;-43
2022/12/08 00:49:01;;;;;;;2.53;0.70;;;;;;;-1.03;100.00;100475.81;5019408;28;20204;-43
2022/12/08 00:51:27;;;;;;;3.30;0.77;;;;;;;-1.03;100.00;100475.81;5019628;28;20254;-43
2022/12/08 00:53:52;;;;;;;5.68;0.73;;;;;;;-1.11;100.00;100460.03;5017593;28;20371;-42
2022/12/08 00:56:18;;;;;;;1.77;0.70;;;;;;;-1.07;100.00;100458.31;5021720;28;20188;-44
2022/12/08 00:58:43;;;;;;;0.60;0.60;;;;;;;-1.14;100.00;100446.84;5014394;28;20279;-42
2022/12/08 01:01:10;;;;;;;1.05;0.60;;;;;;;-1.13;100.00;100442.50;5018504;28;20230;-43
2022/12/08 01:03:36;;;;;;;4.28;0.73;;;;;;;-1.13;100.00;100447.75;5017583;28;20188;-42
2022/12/08 01:06:03;;;;;;;2.03;0.70;;;;;;;-1.14;100.00;100441.59;5016515;28;20185;-43
2022/12/08 01:08:29;;;;;;;0.70;0.70;;;;;;;-1.11;100.00;100449.50;5017118;28;20172;-42
2022/12/08 01:10:55;;;;;;;2.20;0.65;;;;;;;-1.15;100.00;100454.75;5014560;28;20196;-42
2022/12/08 01:13:20;;;;;;;5.28;0.80;;;;;;;-1.14;100.00;100453.88;5016592;28;20765;-43
2022/12/08 01:15:46;;;;;;;5.85;0.90;;;;;;;-1.13;100.00;100445.13;5019997;28;20183;-42
2022/12/08 01:18:11;;;;;;;0.98;0.50;;;;;;;-1.12;100.00;100460.88;5026391;28;20675;-43
2022/12/08 01:20:37;;;;;;;1.67;0.60;;;;;;;-1.19;100.00;100458.25;5020388;28;20207;-42
2022/12/08 01:23:03;;;;;;;0.75;0.60;;;;;;;-1.20;100.00;100448.59;5017156;28;20561;-43
2022/12/08 01:25:28;;;;;;;1.50;0.43;;;;;;;-1.12;100.00;100454.75;5020642;28;20182;-43
2022/12/08 01:27:53;;;;;;;1.63;0.40;;;;;;;-1.11;100.00;100448.63;5027183;28;20247;-41
2022/12/08 01:30:20;;;;;;;1.08;0.35;;;;;;;-1.22;100.00;100448.59;5016631;28;20209;-41
2022/12/08 01:32:46;;;;;;;0.70;0.28;;;;;;;-1.31;100.00;100454.69;5024801;28;20180;-43
2022/12/08 01:35:12;;;;;;;0.80;0.40;;;;;;;-1.18;100.00;100466.16;5014206;28;20570;-42
2022/12/08 01:37:38;;;;;;;1.35;0.35;;;;;;;-1.20;100.00;100465.25;5014414;28;20209;-43
2022/12/08 01:40:06;;;;;;;0.88;0.40;;;;;;;-1.26;100.00;100450.34;5009980;28;20232;-43
2022/12/08 01:42:33;;;;;;;0.50;0.30;;;;;;;-1.30;100.00;100448.56;5017092;28;20191;-42
2022/12/08 01:45:02;;;;;;;0.75;0.30;;;;;;;-1.35;100.00;100446.81;5018233;28;20246;-43
2022/12/08 01:47:36;;;;;;;0.57;0.50;;;;;;;-1.31;100.00;100453.84;5021583;28;20271;-43
2022/12/08 01:50:06;;;;;;;2.05;0.40;;;;;;;-1.36;100.00;100445.91;5017115;28;20215;-42
2022/12/08 01:52:40;;;;;;;1.40;0.20;;;;;;;-1.30;100.00;100447.69;5013425;28;20706;-43
2022/12/08 01:55:17;;;;;;;0.55;0.30;;;;;;;-1.34;100.00;100438.91;5017433;28;20481;-41
2022/12/08 01:57:47;;;;;;;1.27;0.35;;;;;;;-1.36;100.00;100442.41;5019658;28;20200;-43
2022/12/08 02:00:16;;;;;;;0.60;0.40;;;;;;;-1.31;100.00;100443.31;5016322;28;20287;-44
2022/12/08 02:03:03;;;;;;;0.35;0.30;;;;;;;-1.26;100.00;100441.56;5018787;28;20902;-42
2022/12/08 02:05:35;;;;;;;0.95;0.40;;;;;;;-1.20;100.00;100435.44;5014500;28;20177;-41
2022/12/08 02:08:05;;;;;;;0.50;0.32;;;;;;;-1.18;100.00;100425.81;5019999;28;20247;-43
2022/12/08 02:10:34;;;;;;;1.10;0.50;;;;;;;-1.15;100.00;100439.00;5019594;28;20243;-43
2022/12/08 02:13:01;;;;;;;1.23;0.43;;;;;;;-1.18;100.00;100442.50;5014979;28;20192;-43
2022/12/08 02:16:18;;;;;;;0.63;0.45;;;;;;;-1.27;100.00;100426.66;5014651;28;20195;-44
2022/12/08 02:19:10;;;;;;;1.48;0.40;;;;;;;-1.21;100.00;100433.72;5012406;28;20224;-41
2022/12/08 02:21:43;;;;;;;0.38;0.30;;;;;;;-1.25;100.00;100415.31;5016497;28;20220;-43
2022/12/08 02:24:17;;;;;;;0.60;0.43;;;;;;;-1.24;100.00;100418.81;5021161;28;20200;-43
2022/12/08 02:27:07;;;;;;;1.35;0.63;;;;;;;-1.32;100.00;100421.41;5012358;28;20202;-45
2022/12/08 02:29:45;;;;;;;3.22;0.50;;;;;;;-1.33;100.00;100411.78;5018517;28;20219;-42
2022/12/08 02:32:35;;;;;;;1.13;0.52;;;;;;;-1.25;100.00;100414.41;5014200;28;20183;-43
2022/12/08 02:35:09;;;;;;;4.30;0.50;;;;;;;-1.34;100.00;100407.38;5016913;28;20189;-43
2022/12/08 02:37:46;;;;;;;0.82;0.70;;;;;;;-1.45;100.00;100403.84;5014811;28;20281;-42
2022/12/08 02:40:20;;;;;;;1.10;0.50;;;;;;;-1.38;100.00;100415.25;5016660;28;20299;-41
2022/12/08 02:43:13;;;;;;;1.95;0.50;;;;;;;-1.40;100.00;100396.88;5023545;28;20188;-42
2022/12/08 02:45:52;;;;;;;0.93;0.50;;;;;;;-1.42;100.00;100402.97;5018905;28;20201;-43
2022/12/08 02:48:17;;;;;;;2.15;0.60;;;;;;;-1.45;100.00;100406.47;5020136;28;20192;-44
2022/12/08 02:50:43;;;;;;;0.88;0.70;;;;;;;-1.47;100.00;100405.56;5018635;28;20623;-42
2022/12/08 02:53:08;;;;;;;1.42;0.60;;;;;;;-1.42;100.00;100389.81;5022386;28;20234;-43
2022/12/08 02:56:07;;;;;;;2.25;0.80;;;;;;;-1.41;100.00;100402.97;5019682;28;20649;-42
2022/12/08 02:59:01;;;;;;;0.88;0.70;;;;;;;-1.36;100.00;100398.59;5020148;28;20235;-42
2022/12/08 03:01:53;;;;;;;1.05;0.60;;;;;;;-1.33;100.00;100398.63;5019324;28;20212;-43
2022/12/08 03:04:53;;;;;;;1.58;0.50;;;;;;;-1.37;100.00;100394.22;5017400;28;20335;-42
2022/12/08 03:07:30;;;;;;;2.22;0.70;;;;;;;-1.37;100.00;100403.88;5011036;28;20208;-44
2022/12/08 03:10:11;;;;;;;1.90;0.90;;;;;;;-1.45;100.00;100398.56;5021869;28;20208;-42
2022/12/08 03:12:40;;;;;;;2.42;0.63;;;;;;;-1.28;100.00;100396.88;5020752;28;20183;-43
2022/12/08 03:15:10;;;;;;;3.40;0.70;;;;;;;-1.35;100.00;100389.88;5020780;28;20279;-41
2022/12/08 03:17:38;;;;;;;2.47;0.80;;;;;;;-1.42;100.00;100389.81;5019587;28;20330;-44
2022/12/08 03:20:08;;;;;;;2.25;0.80;;;;;;;-1.41;100.00;100394.22;5020188;28;20208;-42
2022/12/08 03:22:34;;;;;;;1.73;0.73;;;;;;;-1.46;100.00;100384.56;5022453;28;20632;-42
2022/12/08 03:25:00;;;;;;;1.58;0.80;;;;;;;-1.43;100.00;100386.31;5021418;28;20185;-43
2022/12/08 03:27:29;;;;;;;4.03;1.13;;;;;;;-1.49;100.00;100379.31;5016591;28;20218;-43
2022/12/08 03:29:57;;;;;;;3.25;0.90;;;;;;;-1.48;100.00;100370.53;5019212;28;20209;-43
2022/12/08 03:32:46;;;;;;;1.73;0.93;;;;;;;-1.47;100.00;100374.91;5016874;28;20290;-42
2022/12/08 03:35:19;;;;;;;2.17;0.75;;;;;;;-1.48;100.00;100374.94;5019350;28;20463;-44
2022/12/08 03:37:45;;;;;;;0.82;0.80;;;;;;;-1.47;100.00;100369.66;5019187;28;20666;-41
2022/12/08 03:40:14;;;;;;;2.10;0.70;;;;;;;-1.42;100.00;100369.69;5019998;28;20234;-42
2022/12/08 03:42:40;;;;;;;1.25;0.73;;;;;;;-1.41;100.00;100371.44;5017106;28;20199;-44
2022/12/08 03:45:06;;;;;;;0.80;0.77;;;;;;;-1.40;100.00;100380.19;5021393;28;20188;-43
2022/12/08 03:47:31;;;;;;;0.80;0.80;;;;;;;-1.37;100.00;100374.97;5020853;28;20195;-49
2022/12/08 03:49:57;;;;;;;1.70;0.80;;;;;;;-1.32;100.00;100379.34;5018369;28;20204;-45
2022/12/08 03:52:23;;;;;;;2.45;0.88;;;;;;;-1.32;100.00;100381.97;5023482;28;20559;-46
2022/12/08 03:54:48;;;;;;;3.25;0.82;;;;;;;-1.34;100.00;100375.84;5027041;28;20183;-44
2022/12/08 03:57:14;;;;;;;3.17;0.93;;;;;;;-1.22;100.00;100368.84;5032223;28;20186;-43
2022/12/08 03:59:39;;;;;;;1.02;0.80;;;;;;;-1.28;100.00;100370.59;5031713;28;20208;-47
2022/12/08 04:02:05;;;;;;;2.38;0.70;;;;;;;-1.33;100.00;100374.97;5031757;28;20184;-44
2022/12/08 04:04:30;;;;;;;1.00;0.88;;;;;;;-1.31;100.00;100380.25;5017133;28;20550;-43
2022/12/08 04:06:56;;;;;;;1.30;0.90;;;;;;;-1.21;100.00;100368.00;5014132;28;20226;-44
2022/12/08 04:09:22;;;;;;;2.22;1.00;;;;;;;-1.30;100.00;100372.34;5023627;28;20306;-47
2022/12/08 04:11:47;;;;;;;1.08;1.08;;;;;;;-1.31;100.00;100367.13;5021536;28;20180;-44
2022/12/08 04:14:13;;;;;;;1.42;1.13;;;;;;;-1.26;100.00;100373.25;5027529;28;20359;-47
2022/12/08 04:16:38;;;;;;;3.33;1.27;;;;;;;-1.21;100.00;100360.97;5014692;28;20203;-43
2022/12/08 04:19:04;;;;;;;2.00;1.10;;;;;;;-1.25;100.00;100368.00;5020186;28;20282;-46
2022/12/08 04:21:30;;;;;;;2.35;1.40;;;;;;;-1.20;100.00;100367.09;5031529;28;20211;-44
2022/12/08 04:23:55;;;;;;;2.85;1.45;;;;;;;-1.18;100.00;100361.00;5018889;28;20191;-45
2022/12/08 04:26:21;;;;;;;1.40;1.30;;;;;;;-1.19;100.00;100363.63;5010468;28;20223;-46
2022/12/08 04:28:46;;;;;;;2.22;1.40;;;;;;;-1.20;100.00;100361.84;5018360;28;20172;-46
2022/12/08 04:31:12;;;;;;;2.10;1.42;;;;;;;-1.22;100.00;100359.25;5031456;28;20203;-45
2022/12/08 04:33:38;;;;;;;2.53;1.45;;;;;;;-1.21;100.00;100360.09;5019602;28;20173;-43
2022/12/08 04:36:05;;;;;;;4.35;1.50;;;;;;;-1.21;100.00;100345.22;5011353;28;20227;-44
2022/12/08 04:38:32;;;;;;;2.78;1.63;;;;;;;-1.17;100.00;100351.34;5023908;28;20208;-49
2022/12/08 04:40:57;;;;;;;1.88;1.58;;;;;;;-1.16;100.00;100346.13;5017766;28;20213;-48
2022/12/08 04:43:23;;;;;;;3.05;1.70;;;;;;;-1.19;100.00;100347.84;5019434;28;20195;-48
2022/12/08 04:45:49;;;;;;;1.65;1.50;;;;;;;-1.16;100.00;100356.63;5019919;28;20173;-51
2022/12/08 04:48:14;;;;;;;3.28;1.90;;;;;;;-1.14;100.00;100351.34;5020898;28;20270;-48
2022/12/08 04:50:41;;;;;;;3.15;1.40;;;;;;;-1.20;100.00;100346.06;5017335;28;20208;-48
2022/12/08 04:53:08;;;;;;;1.50;1.30;;;;;;;-1.22;100.00;100334.69;5016433;28;20234;-48
2022/12/08 04:55:33;;;;;;;1.92;1.63;;;;;;;-1.25;100.00;100336.47;5018276;28;20242;-49
2022/12/08 04:57:59;;;;;;;1.75;1.50;;;;;;;-1.20;100.00;100327.69;5017745;28;20675;-49
2022/12/08 05:00:25;;;;;;;2.17;1.73;;;;;;;-1.15;100.00;100336.47;5018467;28;20290;-49
2022/12/08 05:02:50;;;;;;;2.85;2.00;;;;;;;-1.12;100.00;100345.22;5019321;28;20315;-48
2022/12/08 05:05:16;;;;;;;2.47;1.95;;;;;;;-1.19;100.00;100347.84;5012180;28;20192;-48
2022/12/08 05:07:41;;;;;;;2.00;1.80;;;;;;;-1.13;100.00;100340.84;5016544;28;20906;-49
2022/12/08 05:10:07;;;;;;;2.35;1.90;;;;;;;-1.11;100.00;100343.50;5018344;28;20208;-48
2022/12/08 05:12:33;;;;;;;2.63;1.90;;;;;;;-1.12;100.00;100341.72;5020989;28;20550;-49
2022/12/08 05:14:58;;;;;;;3.47;2.20;;;;;;;-1.11;100.00;100335.59;5020627;28;20636;-47
2022/12/08 05:17:24;;;;;;;1.90;1.80;;;;;;;-1.08;100.00;100328.56;5018368;28;20291;-47
2022/12/08 05:19:49;;;;;;;6.65;2.20;;;;;;;-1.10;100.00;100332.09;5019973;28;20227;-48
2022/12/08 05:22:15;;;;;;;2.45;1.92;;;;;;;-1.12;100.00;100333.84;5020626;28;20682;-48
2022/12/08 05:24:40;;;;;;;3.53;2.33;;;;;;;-1.14;100.00;100331.19;5016926;28;20189;-49
2022/12/08 05:27:06;;;;;;;3.33;2.17;;;;;;;-1.18;100.00;100329.47;5017843;28;20217;-49
2022/12/08 05:29:31;;;;;;;4.93;2.13;;;;;;;-1.21;100.00;100326.81;5018386;28;20202;-49
2022/12/08 05:31:57;;;;;;;2.38;2.17;;;;;;;-1.09;100.00;100339.13;5021263;28;20180;-48
2022/12/08 05:34:23;;;;;;;2.42;2.10;;;;;;;-1.08;100.00;100343.47;5017805;28;20251;-48
2022/12/08 05:36:48;;;;;;;5.60;2.03;;;;;;;-1.07;100.00;100347.88;5018796;28;20239;-48
2022/12/08 05:39:14;;;;;;;2.83;2.38;;;;;;;-1.02;100.00;100335.59;5015566;28;20290;-48
2022/12/08 05:41:40;;;;;;;4.07;2.33;;;;;;;-0.99;100.00;100335.59;5019251;28;20187;-50
2022/12/08 05:44:06;;;;;;;4.90;2.90;;;;;;;-0.96;100.00;100346.13;5017732;28;20629;-49
2022/12/08 05:46:33;;;;;;;3.95;2.67;;;;;;;-1.00;100.00;100347.00;5014742;28;20192;-48
2022/12/08 05:49:00;;;;;;;5.40;2.58;;;;;;;-1.00;100.00;100336.50;5019127;28;20199;-49
2022/12/08 05:51:26;;;;;;;2.92;2.35;;;;;;;-1.10;100.00;100335.59;5019414;28;20203;-47
2022/12/08 05:53:53;;;;;;;2.50;2.30;;;;;;;-1.09;100.00;100345.25;5015723;28;20671;-48
2022/12/08 05:56:19;;;;;;;2.78;2.25;;;;;;;-1.08;100.00;100336.47;5018099;28;20211;-50
2022/12/08 05:58:46;;;;;;;2.55;2.35;;;;;;;-1.11;100.00;100332.97;5014294;28;20675;-48
2022/12/08 06:01:26;;;;;;;3.13;2.67;;;;;;;-1.16;100.00;100335.59;5020328;28;20188;-46
2022/12/08 06:03:52;;;;;;;4.13;2.58;;;;;;;-1.22;100.00;100327.69;5026021;28;20652;-48
2022/12/08 06:06:18;;;;;;;4.45;2.80;;;;;;;-1.10;100.00;100330.31;5013881;28;20181;-48
2022/12/08 06:08:44;;;;;;;2.83;2.63;;;;;;;-1.18;100.00;100323.31;5016392;28;20212;-49
2022/12/08 06:11:16;;;;;;;3.03;2.78;;;;;;;-1.19;100.00;100329.44;5019597;28;20828;-49
2022/12/08 06:13:42;;;;;;;2.92;2.72;;;;;;;-1.18;100.00;100337.34;5015123;28;20196;-49
2022/12/08 06:16:07;;;;;;;3.55;2.92;;;;;;;-1.24;100.00;100332.06;5020701;28;20192;-49
2022/12/08 06:18:33;;;;;;;3.47;2.85;;;;;;;-1.19;100.00;100337.34;5021459;28;20200;-48
2022/12/08 06:21:07;;;;;;;3.10;2.75;;;;;;;-1.10;100.00;100353.13;5022052;28;20208;-49
2022/12/08 06:23:33;;;;;;;2.97;2.75;;;;;;;-1.11;100.00;100349.63;5022300;28;20271;-50
2022/12/08 06:26:08;;;;;;;3.72;2.92;;;;;;;-1.26;100.00;100346.97;5020663;28;20279;-47
2022/12/08 06:28:36;;;;;;;3.03;2.83;;;;;;;-1.24;100.00;100350.47;5021589;28;20188;-48
2022/12/08 06:31:10;;;;;;;4.60;3.08;;;;;;;-1.18;100.00;100339.06;5019784;28;20205;-46
2022/12/08 06:33:36;;;;;;;4.00;3.40;;;;;;;-1.16;100.00;100339.97;5019502;28;20179;-48
2022/12/08 06:36:03;;;;;;;5.60;3.28;;;;;;;-1.07;100.00;100348.75;5018995;28;20194;-47
2022/12/08 06:38:28;;;;;;;7.50;3.97;;;;;;;-1.08;100.00;100339.09;5019189;28;20297;-48
2022/12/08 06:40:55;;;;;;;3.72;3.08;;;;;;;-1.03;100.00;100344.34;5018463;28;20639;-47
2022/12/08 06:43:21;;;;;;;4.25;3.72;;;;;;;-1.03;100.00;100346.97;5020602;28;21146;-50
2022/12/08 06:45:46;;;;;;;4.18;3.25;;;;;;;-1.18;100.00;100344.34;5022201;28;20192;-47
2022/12/08 06:48:12;;;;;;;3.75;3.22;;;;;;;-1.12;100.00;100353.09;5017796;28;20177;-47
2022/12/08 06:50:37;;;;;;;3.78;3.38;;;;;;;-1.10;100.00;100351.34;5020784;28;20205;-47
2022/12/08 06:53:03;;;;;;;3.97;3.67;;;;;;;-1.09;100.00;100354.88;5022198;28;20231;-47
2022/12/08 06:55:28;;;;;;;3.88;3.47;;;;;;;-1.17;100.00;100364.50;5019752;28;20615;-49
2022/12/08 06:57:54;;;;;;;4.35;4.05;;;;;;;-1.18;100.00;100368.00;5024175;28;20499;-48
2022/12/08 07:00:20;;;;;;;3.72;3.42;;;;;;;-1.22;100.00;100379.38;5019881;28;20255;-47
2022/12/08 07:02:45;;;;;;;4.05;3.05;;;;;;;-1.26;100.00;100375.88;5020811;28;20176;-47
2022/12/08 07:05:11;;;;;;;8.35;3.80;;;;;;;-1.28;100.00;100372.34;5021866;28;20208;-47
2022/12/08 07:07:36;;;;;;;4.28;3.88;;;;;;;-1.36;100.00;100369.69;5022303;28;20649;-48
2022/12/08 07:10:02;;;;;;;3.85;3.55;;;;;;;-1.22;100.00;100379.38;5020274;28;20213;-47
2022/12/08 07:12:27;;;;;;;4.00;3.50;;;;;;;-1.30;100.00;100376.72;5018721;28;20207;-47
2022/12/08 07:14:53;;;;;;;5.30;4.20;;;;;;;-1.36;100.00;100368.81;5019989;28;20181;-48
2022/12/08 07:17:18;;;;;;;5.20;4.70;;;;;;;-1.38;100.00;100368.81;5021021;28;20647;-49
2022/12/08 07:19:44;;;;;;;4.63;4.20;;;;;;;-1.45;100.00;100374.94;5016640;28;20257;-49
2022/12/08 07:22:09;;;;;;;4.25;3.92;;;;;;;-1.48;100.00;100374.94;5018765;28;20181;-48
2022/12/08 07:24:35;;;;;;;6.65;4.03;;;;;;;-1.43;100.00;100375.81;5026960;28;20184;-47
2022/12/08 07:27:00;;;;;;;4.25;3.85;;;;;;;-1.40;100.00;100375.84;5020351;28;20184;-42
2022/12/08 07:29:26;;;;;;;5.03;3.80;;;;;;;-1.35;100.00;100381.97;5024777;28;20208;-47
2022/12/08 07:31:51;;;;;;;6.18;3.80;;;;;;;-1.33;100.00;100374.09;5021227;28;20263;-45
2022/12/08 07:34:17;;;;;;;4.18;3.70;;;;;;;-1.30;100.00;100372.34;5018814;28;20551;-44
2022/12/08 07:36:42;;;;;;;4.45;4.05;;;;;;;-1.37;100.00;100375.84;5019945;28;20184;-45
2022/12/08 07:39:08;;;;;;;4.03;3.60;;;;;;;-1.37;100.00;100386.34;5016782;28;20767;-46
2022/12/08 07:41:33;;;;;;;3.97;3.67;;;;;;;-1.36;100.00;100384.59;5019175;28;20266;-46
2022/12/08 07:43:59;;;;;;;4.40;3.15;;;;;;;-1.39;100.00;100390.72;5019243;28;20172;-46
2022/12/08 07:46:25;;;;;;;4.40;4.00;;;;;;;-1.42;100.00;100395.06;5017211;28;20268;-47
2022/12/08 07:48:52;;;;;;;5.22;4.43;;;;;;;-1.52;100.00;100386.28;5019238;28;20707;-48
2022/12/08 07:51:18;;;;;;;5.63;4.00;;;;;;;-1.57;100.00;100383.66;5020941;28;20184;-46
2022/12/08 07:53:46;;;;;;;4.35;3.33;;;;;;;-1.61;100.00;100400.28;5017455;28;20214;-46
2022/12/08 07:56:12;;;;;;;6.50;4.35;;;;;;;-1.55;100.00;100391.53;5020457;28;20192;-50
2022/12/08 07:58:39;;;;;;;4.78;4.38;;;;;;;-1.58;100.00;100402.03;5021315;28;20295;-47
2022/12/08 08:01:05;;;;;;;4.50;4.10;;;;;;;-1.71;100.00;100416.84;5018691;28;20181;-45
2022/12/08 08:03:31;;;;;;;6.32;4.82;;;;;;;-1.73;100.00;100410.72;5020438;28;20661;-45
2022/12/08 08:06:04;;;;;;;6.10;4.30;;;;;;;-1.61;100.00;100416.03;5015989;28;20191;-46
2022/12/08 08:08:30;;;;;;;4.75;4.30;;;;;;;-1.44;100.00;100413.50;5022488;28;20188;-46
2022/12/08 08:10:56;;;;;;;6.72;4.88;;;;;;;-1.43;100.00;100423.09;5019688;28;20233;-46
2022/12/08 08:13:22;;;;;;;5.03;4.53;;;;;;;-1.28;100.00;100417.03;5017225;28;20230;-46
2022/12/08 08:15:47;;;;;;;9.85;4.60;;;;;;;-1.41;100.00;100410.00;5018842;28;20188;-46
2022/12/08 08:18:13;;;;;;;5.70;5.10;;;;;;;-1.33;100.00;100418.78;5018997;28;20636;-45
2022/12/08 08:20:39;;;;;;;7.30;4.85;;;;;;;-1.33;100.00;100414.41;5016980;28;20209;-45
2022/12/08 08:23:04;;;;;;;6.38;4.45;;;;;;;-1.29;100.00;100413.53;5017855;28;20273;-48
2022/12/08 08:25:30;;;;;;;7.25;5.20;;;;;;;-1.33;100.00;100403.88;5018289;28;20171;-47
2022/12/08 08:27:56;;;;;;;6.82;5.45;;;;;;;-1.37;100.00;100404.75;5020795;28;20176;-44
2022/12/08 08:30:21;;;;;;;6.32;4.63;;;;;;;-1.31;100.00;100402.13;5020125;28;20208;-45
2022/12/08 08:32:48;;;;;;;4.82;4.40;;;;;;;-1.23;100.00;100409.16;5019984;28;20192;-46
2022/12/08 08:35:14;;;;;;;4.15;3.70;;;;;;;-1.15;100.00;100415.31;5017792;28;20267;-47
2022/12/08 08:37:39;;;;;;;4.70;3.70;;;;;;;-1.10;100.00;100405.69;5014073;28;20219;-44
2022/12/08 08:40:05;;;;;;;4.85;3.72;;;;;;;-1.00;100.00;100410.09;5017526;28;20211;-46
2022/12/08 08:42:31;;;;;;;4.25;3.85;;;;;;;-0.96;100.00;100419.75;5020593;28;20274;-44
2022/12/08 08:44:56;;;;;;;4.50;4.07;;;;;;;-1.11;100.00;100414.47;5016871;28;20263;-47
2022/12/08 08:47:22;;;;;;;3.55;3.25;;;;;;;-0.98;100.00;100421.50;5017710;28;20204;-47
2022/12/08 08:49:47;;;;;;;3.65;3.28;;;;;;;-0.90;100.00;100419.75;5019562;28;20209;-46
2022/12/08 08:52:13;;;;;;;6.05;3.72;;;;;;;-0.99;100.00;100419.72;5016623;28;20612;-45
2022/12/08 08:54:39;;;;;;;3.83;3.03;;;;;;;-0.93;100.00;100427.66;5017186;28;20184;-48
2022/12/08 08:57:04;;;;;;;3.55;3.20;;;;;;;-0.96;100.00;100424.13;5019222;28;20552;-46
2022/12/08 08:59:30;;;;;;;3.08;2.60;;;;;;;-0.95;100.00;100426.75;5015338;28;20223;-47
2022/12/08 09:01:55;;;;;;;3.20;2.67;;;;;;;-1.31;100.00;100422.28;5018226;28;20249;-47
2022/12/08 09:04:22;;;;;;;5.50;3.28;;;;;;;-1.45;100.00;100430.09;5018389;28;20259;-46
2022/12/08 09:06:48;;;;;;;4.28;3.28;;;;;;;-1.61;100.00;100433.53;5020041;28;20314;-48
2022/12/08 09:09:15;;;;;;;5.78;3.05;;;;;;;-1.74;100.00;100430.84;5017390;28;20196;-47
2022/12/08 09:11:41;;;;;;;3.22;2.92;;;;;;;-1.51;100.00;100440.56;5022532;28;20187;-47
2022/12/08 09:14:11;;;;;;;3.97;3.22;;;;;;;-1.47;100.00;100437.09;5016472;28;20196;-45
2022/12/08 09:16:36;;;;;;;2.97;2.78;;;;;;;-1.50;100.00;100431.84;5018289;28;20246;-48
2022/12/08 09:19:02;;;;;;;3.42;3.13;;;;;;;-1.52;100.00;100444.97;5016357;28;20240;-48
2022/12/08 09:21:27;;;;;;;3.45;3.15;;;;;;;-1.54;100.00;100437.94;5022332;28;20187;-46
2022/12/08 09:23:57;;;;;;;5.72;3.40;;;;;;;-1.51;100.00;100428.34;5019976;28;20180;-46
2022/12/08 09:26:24;;;;;;;4.22;3.20;;;;;;;-1.46;100.00;100445.00;5019159;28;20653;-47
2022/12/08 09:28:51;;;;;;;4.38;3.10;;;;;;;-1.40;100.00;100448.50;5019597;28;20191;-47
2022/12/08 09:31:19;;;;;;;3.42;3.13;;;;;;;-1.49;100.00;100438.84;5017334;28;20183;-47
2022/12/08 09:33:45;;;;;;;5.63;4.03;;;;;;;-1.57;100.00;100446.69;5016471;28;20177;-46
2022/12/08 09:36:10;;;;;;;6.72;3.75;;;;;;;-1.67;100.00;100451.00;5018030;28;20602;-46
2022/12/08 09:38:38;;;;;;;4.70;3.92;;;;;;;-1.75;100.00;100452.75;5002480;28;20211;-45
2022/12/08 09:41:12;;;;;;;4.35;3.40;;;;;;;-1.70;100.00;100445.75;5015964;28;20229;-47
2022/12/08 09:44:13;;;;;;;4.25;3.20;;;;;;;-1.51;100.00;100448.47;5020326;28;20192;-46
2022/12/08 09:46:40;;;;;;;4.38;3.42;;;;;;;-1.36;100.00;100445.91;4991754;28;20262;-48
2022/12/08 09:49:13;;;;;;;10.55;7.28;;;;;;;-1.06;100.00;100439.88;5019317;28;20208;-46
2022/12/08 09:51:40;;;;;;;7.30;5.60;;;;;;;-0.69;100.00;100445.22;5016943;28;20647;-45
2022/12/08 09:54:24;;;;;;;6.97;4.50;;;;;;;-0.28;100.00;100436.47;5015709;28;20238;-46
2022/12/08 09:56:53;;;;;;;6.25;4.45;;;;;;;-0.24;100.00;100432.06;5018186;28;20542;-46
2022/12/08 09:59:30;;;;;;;6.97;4.30;;;;;;;-0.17;100.00;100423.31;5015034;28;20597;-45
2022/12/08 10:01:55;;;;;;;6.25;3.58;;;;;;;0.07;100.00;100425.03;5004976;28;20647;-47
2022/12/08 10:04:36;;;;;;;8.98;2.97;;;;;;;-0.02;100.00;100414.53;5019428;28;20191;-48
2022/12/08 10:07:23;;;;;;;3.65;2.60;;;;;;;-0.24;100.00;100426.81;5014545;28;20184;-47
2022/12/08 10:09:57;;;;;;;2.40;2.20;;;;;;;-0.23;100.00;100424.19;5016772;28;20218;-48
2022/12/08 10:12:35;;;;;;;2.00;1.83;;;;;;;-0.34;100.00;100422.44;5014483;28;20192;-46
2022/12/08 10:15:38;;;;;;;5.03;4.60;;;;;;;-0.27;100.00;100426.81;5017982;28;20203;-47
2022/12/08 10:18:12;;;;;;;5.35;4.90;;;;;;;-0.12;100.00;100423.31;5016724;28;20203;-47
2022/12/08 10:20:40;;;;;;;4.50;4.18;;;;;;;-0.07;100.00;100426.78;5019102;28;20247;-46
2022/12/08 10:23:18;;;;;;;11.45;8.35;;;;;;;0.07;100.00;100421.53;5018987;28;20601;-44
2022/12/08 10:25:49;;;;;;;2.67;2.17;;;;;;;-0.05;100.00;100422.41;5014553;28;20172;-46
2022/12/08 10:28:14;;;;;;;2.40;2.20;;;;;;;-0.16;100.00;100416.28;5016498;28;20682;-45
2022/12/08 10:30:41;;;;;;;2.85;2.35;;;;;;;-0.23;100.00;100407.50;5017876;28;20235;-47
2022/12/08 10:33:16;;;;;;;18.67;10.18;;;;;;;0.34;100.00;100417.94;5015467;28;20172;-47
2022/12/08 10:35:46;;;;;;;5.85;4.07;;;;;;;0.28;100.00;100417.94;5017356;28;20270;-46
2022/12/08 10:38:31;;;;;;;9.23;6.22;;;;;;;0.47;100.00;100418.78;5016992;28;20212;-49
2022/12/08 10:41:08;;;;;;;3.90;3.53;;;;;;;0.45;100.00;100424.03;5015283;28;20208;-46
2022/12/08 10:43:40;;;;;;;7.80;6.00;;;;;;;0.56;100.00;100416.09;5017625;28;20748;-45
2022/12/08 10:46:17;;;;;;;5.95;4.43;;;;;;;0.67;100.00;100414.28;5013251;28;20188;-45
2022/12/08 10:48:52;;;;;;;6.90;5.57;;;;;;;0.60;100.00;100423.09;5017891;28;20183;-44
2022/12/08 10:51:29;;;;;;;6.05;4.38;;;;;;;0.55;100.00;100417.00;5019596;28;20174;-46
2022/12/08 10:53:55;;;;;;;7.75;4.95;;;;;;;0.53;100.00;100413.47;5015034;28;20567;-47
2022/12/08 10:56:28;;;;;;;4.30;2.95;;;;;;;0.35;100.00;100419.66;5018080;28;20260;-46
2022/12/08 10:59:13;;;;;;;3.95;2.90;;;;;;;0.28;100.00;100421.44;5016713;28;20892;-47
2022/12/08 11:01:41;;;;;;;4.38;3.40;;;;;;;0.36;100.00;100422.31;5019496;28;20283;-47
2022/12/08 11:04:35;;;;;;;6.68;3.78;;;;;;;0.52;100.00;100424.88;5019904;28;20172;-47
2022/12/08 11:07:03;;;;;;;4.25;2.58;;;;;;;0.36;100.00;100424.94;5023470;28;20228;-45
2022/12/08 11:09:45;;;;;;;2.65;2.40;;;;;;;0.48;100.00;100412.59;5018307;28;20247;-45
2022/12/08 11:12:13;;;;;;;4.43;3.65;;;;;;;0.73;100.00;100413.38;5018343;28;20250;-46
2022/12/08 11:14:42;;;;;;;3.05;2.72;;;;;;;0.80;100.00;100415.09;5018829;28;20207;-46
2022/12/08 11:17:09;;;;;;;5.30;2.67;;;;;;;0.72;100.00;100407.25;5020949;28;20188;-47
2022/12/08 11:19:43;;;;;;;3.08;2.60;;;;;;;0.68;100.00;100412.50;5020449;28;20714;-45
2022/12/08 11:22:31;;;;;;;3.22;2.50;;;;;;;0.68;100.00;100415.16;5022250;28;20171;-45
2022/12/08 11:25:06;;;;;;;4.65;2.40;;;;;;;0.57;100.00;100408.19;5018812;28;20184;-46
2022/12/08 11:27:36;;;;;;;2.60;2.40;;;;;;;0.83;100.00;100415.06;5018699;28;20176;-48
2022/12/08 11:30:12;;;;;;;2.70;2.38;;;;;;;0.79;100.00;100413.38;5020662;28;20200;-47
2022/12/08 11:32:43;;;;;;;3.03;2.40;;;;;;;0.73;100.00;100409.00;5016522;28;20465;-44